Time;durP1;ratioP1;P1;durP2;ratioP2;P2;SDS_P1;SDS_P2;PMS_P1;PMS_P2;Temp;Humidity;BMP_temperature;BMP_pressure;BME280_temperature;BME280_humidity;BME280_pressure;Samples;Min_cycle;Max_cycle;Signal;HPM_P1;HPM_P2
2023/05/04 00:01:04;;;;;;;9.18;5.70;;;;;;;14.42;100.00;101547.13;5115403;28;20030;-72
2023/05/04 00:03:50;;;;;;;10.68;6.30;;;;;;;14.24;100.00;101532.53;5115523;28;20027;-71
2023/05/04 00:06:36;;;;;;;8.93;4.82;;;;;;;13.89;100.00;101519.16;5115176;28;20111;-72
2023/05/04 00:09:22;;;;;;;7.50;4.72;;;;;;;13.85;100.00;101509.56;5115132;28;20038;-71
2023/05/04 00:12:07;;;;;;;10.15;5.20;;;;;;;13.73;100.00;101512.41;5115503;28;20059;-71
2023/05/04 00:14:53;;;;;;;10.43;5.38;;;;;;;13.63;100.00;101516.09;5115006;28;20045;-71
2023/05/04 00:17:39;;;;;;;8.45;4.85;;;;;;;13.51;100.00;101502.28;5114872;28;20386;-71
2023/05/04 00:20:24;;;;;;;11.23;5.28;;;;;;;13.32;100.00;101493.81;5115230;28;20032;-71
2023/05/04 00:23:10;;;;;;;10.88;5.43;;;;;;;13.38;100.00;101493.69;5114781;28;20115;-71
2023/05/04 00:25:59;;;;;;;8.98;5.72;;;;;;;13.17;100.00;101480.91;5115083;28;20114;-72
2023/05/04 00:28:45;;;;;;;9.32;5.13;;;;;;;13.16;100.00;101468.66;5115127;28;20016;-71
2023/05/04 00:31:31;;;;;;;10.48;4.80;;;;;;;13.20;100.00;101461.56;5114523;28;20036;-70
2023/05/04 00:34:17;;;;;;;10.77;4.78;;;;;;;13.16;100.00;101460.75;5114533;28;20027;-71
2023/05/04 00:37:03;;;;;;;9.20;4.95;;;;;;;13.25;100.00;101457.06;5114876;28;20028;-71
2023/05/04 00:39:48;;;;;;;7.70;4.82;;;;;;;13.19;100.00;101451.94;5114737;28;20363;-71
2023/05/04 00:42:34;;;;;;;10.52;5.35;;;;;;;13.17;100.00;101462.47;5115060;28;20031;-71
2023/05/04 00:45:20;;;;;;;6.72;5.07;;;;;;;13.19;100.00;101454.56;5114416;28;20028;-71
2023/05/04 00:48:06;;;;;;;6.68;4.57;;;;;;;12.78;100.00;101452.53;5114323;28;20344;-71
2023/05/04 00:50:52;;;;;;;9.07;4.60;;;;;;;12.88;100.00;101443.63;5114396;28;20399;-71
2023/05/04 00:53:38;;;;;;;7.35;4.20;;;;;;;12.74;100.00;101455.25;5114330;28;20131;-71
2023/05/04 00:56:25;;;;;;;10.30;4.60;;;;;;;12.66;100.00;101433.47;5114686;28;20032;-72
2023/05/04 00:59:12;;;;;;;6.80;4.18;;;;;;;12.76;100.00;101422.78;5114410;28;20444;-71
2023/05/04 01:01:58;;;;;;;9.50;4.53;;;;;;;12.75;100.00;101405.28;5115035;28;20490;-70
2023/05/04 01:04:44;;;;;;;8.32;4.15;;;;;;;12.92;100.00;101400.59;5109453;28;20308;-70
2023/05/04 01:07:56;;;;;;;9.35;4.55;;;;;;;12.72;100.00;101407.06;5117332;28;20019;-71
2023/05/04 01:10:53;;;;;;;9.43;4.70;;;;;;;12.57;100.00;101407.28;5099875;28;20475;-71
2023/05/04 01:13:39;;;;;;;12.13;5.07;;;;;;;12.89;100.00;101411.16;5116795;28;20032;-71
2023/05/04 01:16:25;;;;;;;8.45;5.15;;;;;;;12.89;100.00;101395.38;5114560;28;20469;-71
2023/05/04 01:19:10;;;;;;;9.82;6.32;;;;;;;12.85;100.00;101417.38;5114812;28;20024;-71
2023/05/04 01:21:57;;;;;;;7.65;5.47;;;;;;;12.84;100.00;73106.56;5114841;28;20046;-71
2023/05/04 01:24:43;;;;;;;8.57;5.10;;;;;;;-140.66;100.00;55571.53;5114197;28;20027;-71
2023/05/04 01:27:51;;;;;;;8.75;5.60;;;;;;;-140.66;100.00;55571.53;5115091;28;20035;-72
2023/05/04 01:30:43;;;;;;;12.02;5.38;;;;;;;-140.66;100.00;55571.53;5114201;28;20407;-72
2023/05/04 01:33:30;;;;;;;10.63;5.50;;;;;;;-140.66;100.00;55571.53;5099555;28;20036;-72
2023/05/04 01:36:18;;;;;;;7.03;4.85;;;;;;;-140.66;100.00;55571.53;5114966;28;20027;-71
2023/05/04 01:39:04;;;;;;;10.23;5.18;;;;;;;-140.66;100.00;55571.53;5117979;28;20020;-71
2023/05/04 01:41:50;;;;;;;10.70;5.20;;;;;;;-140.66;100.00;55571.53;5115635;28;20360;-72
2023/05/04 01:44:36;;;;;;;8.45;5.28;;;;;;;-140.66;100.00;55571.53;5116655;28;20114;-72
2023/05/04 01:47:22;;;;;;;9.25;5.13;;;;;;;-140.66;100.00;55571.53;5118123;28;20020;-71
2023/05/04 01:50:08;;;;;;;7.47;5.45;;;;;;;-140.66;100.00;55571.53;5119428;28;20060;-71
2023/05/04 01:52:53;;;;;;;8.77;4.20;;;;;;;-140.66;100.00;55571.53;5103240;28;20358;-70
2023/05/04 01:55:39;;;;;;;8.35;4.38;;;;;;;-140.66;100.00;55571.53;5118457;28;20047;-71
2023/05/04 01:58:25;;;;;;;6.47;4.20;;;;;;;-140.66;100.00;55571.53;5117869;28;20059;-71
2023/05/04 02:01:11;;;;;;;5.35;4.15;;;;;;;-140.66;100.00;55571.53;5118085;28;20031;-71
2023/05/04 02:03:56;;;;;;;6.95;4.40;;;;;;;-140.66;100.00;55571.53;5117824;28;20352;-70
2023/05/04 02:06:42;;;;;;;4.95;3.78;;;;;;;-140.66;100.00;55571.53;5118362;28;20086;-71
2023/05/04 02:09:28;;;;;;;5.65;3.90;;;;;;;-140.66;100.00;55571.53;5117348;28;20028;-71
2023/05/04 02:12:14;;;;;;;4.90;3.88;;;;;;;-140.66;100.00;55571.53;5117641;28;20507;-71
2023/05/04 02:14:59;;;;;;;8.07;4.18;;;;;;;-140.66;100.00;55571.53;5117971;28;20465;-70
2023/05/04 02:17:45;;;;;;;6.32;4.10;;;;;;;-140.66;100.00;55571.53;5118392;28;20076;-71
2023/05/04 02:20:31;;;;;;;6.65;4.18;;;;;;;-140.66;100.00;55571.53;5117505;28;20030;-71
2023/05/04 02:23:16;;;;;;;6.97;4.63;;;;;;;-140.66;100.00;55571.53;5117543;28;20020;-71
2023/05/04 02:26:02;;;;;;;8.63;4.43;;;;;;;-140.66;100.00;55571.53;5118036;28;20367;-71
2023/05/04 02:28:48;;;;;;;7.00;4.28;;;;;;;-140.66;100.00;55571.53;5117666;28;20024;-71
2023/05/04 02:31:34;;;;;;;6.85;4.97;;;;;;;-140.66;100.00;55571.53;5103434;28;20046;-71
2023/05/04 02:34:20;;;;;;;6.53;4.80;;;;;;;-140.66;100.00;55571.53;5102978;28;20023;-71
2023/05/04 02:37:05;;;;;;;7.57;4.90;;;;;;;-140.66;100.00;55571.53;5118345;28;20034;-71
2023/05/04 02:39:51;;;;;;;6.95;4.80;;;;;;;-140.66;100.00;55571.53;5117137;28;20336;-71
2023/05/04 02:42:37;;;;;;;7.32;4.70;;;;;;;-140.66;100.00;55571.53;5117368;28;20023;-71
2023/05/04 02:45:23;;;;;;;7.82;4.60;;;;;;;-140.66;100.00;55571.53;5117934;28;20332;-71
2023/05/04 02:48:08;;;;;;;8.20;4.35;;;;;;;-140.66;100.00;55571.53;5117127;28;20030;-71
2023/05/04 02:50:55;;;;;;;6.63;4.30;;;;;;;-140.66;100.00;55571.53;5116911;28;20034;-71
2023/05/04 02:53:41;;;;;;;9.57;4.82;;;;;;;-140.66;100.00;55571.53;5117153;28;20226;-71
2023/05/04 02:56:26;;;;;;;6.32;4.47;;;;;;;-140.66;100.00;55571.53;5115950;28;20053;-71
2023/05/04 02:59:12;;;;;;;8.85;4.78;;;;;;;-140.66;100.00;55571.53;5103285;28;20027;-72
2023/05/04 03:01:58;;;;;;;7.70;4.68;;;;;;;-140.66;100.00;55571.53;5117387;28;20027;-70
2023/05/04 03:04:43;;;;;;;8.80;5.22;;;;;;;-140.66;100.00;55571.53;5116290;28;20032;-71
2023/05/04 03:07:29;;;;;;;8.00;4.63;;;;;;;-140.66;100.00;55571.53;5103042;28;20233;-71
2023/05/04 03:10:15;;;;;;;6.95;4.55;;;;;;;-140.66;100.00;55571.53;5116374;28;20489;-71
2023/05/04 03:13:04;;;;;;;9.27;4.70;;;;;;;-140.66;100.00;55571.53;5102481;28;20042;-71
2023/05/04 03:15:50;;;;;;;7.50;4.80;;;;;;;-140.66;100.00;55571.53;5102769;28;20037;-71
2023/05/04 03:18:36;;;;;;;7.75;4.65;;;;;;;-140.66;100.00;55571.53;5116165;28;20024;-71
2023/05/04 03:21:21;;;;;;;9.98;4.60;;;;;;;-140.66;100.00;55571.53;5117555;28;20015;-71
2023/05/04 03:24:07;;;;;;;9.82;4.60;;;;;;;-140.66;100.00;55571.53;5116799;28;20023;-71
2023/05/04 03:26:53;;;;;;;9.20;5.07;;;;;;;-140.66;100.00;55571.53;5116485;28;20293;-70
2023/05/04 03:29:39;;;;;;;10.25;5.07;;;;;;;-140.66;100.00;55571.53;5102472;28;20083;-72
2023/05/04 03:32:25;;;;;;;9.32;5.18;;;;;;;-140.66;100.00;55571.53;5102341;28;20035;-72
2023/05/04 03:35:12;;;;;;;7.55;4.97;;;;;;;-140.66;100.00;55571.53;5116044;28;20096;-71
2023/05/04 03:37:57;;;;;;;8.68;5.05;;;;;;;-140.66;100.00;55571.53;5102225;28;20034;-70
2023/05/04 03:40:43;;;;;;;8.05;4.85;;;;;;;-140.66;100.00;55571.53;5101681;28;20024;-71
2023/05/04 03:43:29;;;;;;;13.32;5.93;;;;;;;-140.66;100.00;55571.53;5115803;28;20023;-71
2023/05/04 03:46:15;;;;;;;8.38;5.68;;;;;;;-140.66;100.00;55571.53;5116510;28;20055;-71
2023/05/04 03:49:00;;;;;;;10.50;6.03;;;;;;;-140.66;100.00;55571.53;5115422;28;20038;-71
2023/05/04 03:51:46;;;;;;;12.02;6.13;;;;;;;-140.66;100.00;55571.53;5115951;28;20023;-71
2023/05/04 03:54:32;;;;;;;10.00;5.95;;;;;;;-140.66;100.00;55571.53;5115413;28;20123;-71
2023/05/04 03:57:18;;;;;;;9.93;6.10;;;;;;;-140.66;100.00;55571.53;5101408;28;20027;-72
2023/05/04 04:00:04;;;;;;;7.95;5.70;;;;;;;-140.66;100.00;55571.53;5115372;28;20024;-71
2023/05/04 04:02:50;;;;;;;9.20;5.38;;;;;;;-140.66;100.00;55571.53;5101711;28;20088;-71
2023/05/04 04:05:36;;;;;;;9.02;5.78;;;;;;;-140.66;100.00;55571.53;5115149;28;20027;-72
2023/05/04 04:08:21;;;;;;;10.90;6.40;;;;;;;-140.66;100.00;55571.53;5115166;28;20321;-71
2023/05/04 04:11:07;;;;;;;8.27;6.03;;;;;;;-140.66;100.00;55571.53;5114901;28;20119;-72
2023/05/04 04:13:53;;;;;;;12.07;6.63;;;;;;;-140.66;100.00;55571.53;5115140;28;20027;-71
2023/05/04 04:16:39;;;;;;;10.25;7.03;;;;;;;-140.66;100.00;55571.53;5116662;28;20063;-71
2023/05/04 04:19:25;;;;;;;11.93;7.18;;;;;;;-140.66;100.00;55571.53;5100633;28;20038;-72
2023/05/04 04:22:11;;;;;;;11.85;7.13;;;;;;;-140.66;100.00;55571.53;5101668;28;20382;-70
2023/05/04 04:24:57;;;;;;;15.52;8.23;;;;;;;-140.66;100.00;55571.53;5115393;28;20028;-71
2023/05/04 04:27:42;;;;;;;12.93;8.30;;;;;;;-140.66;100.00;55571.53;5114885;28;20032;-71
2023/05/04 04:30:28;;;;;;;15.35;8.48;;;;;;;-140.66;100.00;55571.53;5114976;28;20019;-71
2023/05/04 04:33:15;;;;;;;15.60;8.27;;;;;;;-140.66;100.00;55571.53;5114564;28;20034;-72
2023/05/04 04:36:00;;;;;;;17.05;8.38;;;;;;;-140.66;100.00;55571.53;5115285;28;20039;-71
2023/05/04 04:38:46;;;;;;;17.27;8.73;;;;;;;-140.66;100.00;55571.53;5114792;28;20028;-71
2023/05/04 04:41:32;;;;;;;14.85;8.30;;;;;;;-140.66;100.00;55571.53;5114362;28;20031;-71
2023/05/04 04:44:19;;;;;;;12.43;8.27;;;;;;;-140.66;100.00;55571.53;5114892;28;20347;-71
2023/05/04 04:47:05;;;;;;;16.05;9.05;;;;;;;-140.66;100.00;55571.53;5101017;28;20090;-71
2023/05/04 04:49:51;;;;;;;13.68;8.95;;;;;;;-140.66;100.00;55571.53;5114521;28;20042;-70
2023/05/04 04:52:37;;;;;;;13.10;8.48;;;;;;;-140.66;100.00;55571.53;5114594;28;20028;-71
2023/05/04 04:55:24;;;;;;;15.00;9.38;;;;;;;-140.66;100.00;55571.53;5114356;28;20486;-72
2023/05/04 04:58:10;;;;;;;14.48;9.00;;;;;;;-140.66;100.00;55571.53;5100802;28;20036;-72
2023/05/04 05:00:57;;;;;;;13.02;8.73;;;;;;;-140.66;100.00;55571.53;5106618;28;20015;-71
2023/05/04 05:03:44;;;;;;;21.77;11.30;;;;;;;-140.66;100.00;55571.53;5115065;28;20359;-71
2023/05/04 05:06:30;;;;;;;22.45;10.98;;;;;;;-140.66;100.00;55571.53;5114720;28;20066;-70
2023/05/04 05:09:16;;;;;;;16.08;10.18;;;;;;;-140.66;100.00;55571.53;5114625;28;20355;-72
2023/05/04 05:12:02;;;;;;;20.27;10.27;;;;;;;-140.66;100.00;55571.53;5099827;28;20096;-73
2023/05/04 05:14:49;;;;;;;18.05;10.32;;;;;;;-140.66;100.00;55571.53;5114571;28;20427;-73
2023/05/04 05:17:36;;;;;;;18.63;10.32;;;;;;;-140.66;100.00;55571.53;5114508;28;20028;-74
2023/05/04 05:20:22;;;;;;;13.25;8.48;;;;;;;-140.66;100.00;55571.53;5113653;28;20027;-73
2023/05/04 05:23:08;;;;;;;15.77;9.27;;;;;;;-140.66;100.00;55571.53;5115855;28;20031;-71
2023/05/04 05:25:54;;;;;;;18.95;9.40;;;;;;;-140.66;100.00;55571.53;5114083;28;20116;-72
2023/05/04 05:28:40;;;;;;;20.17;10.13;;;;;;;-140.66;100.00;55571.53;5100374;28;20027;-74
2023/05/04 05:31:26;;;;;;;21.02;10.38;;;;;;;-140.66;100.00;55571.53;5113948;28;20098;-74
2023/05/04 05:34:12;;;;;;;20.15;10.70;;;;;;;-140.66;100.00;55571.53;5115083;28;20023;-72
2023/05/04 05:36:58;;;;;;;16.42;9.88;;;;;;;-140.66;100.00;55571.53;5114575;28;20344;-73
2023/05/04 05:39:43;;;;;;;14.82;10.13;;;;;;;-140.66;100.00;55571.53;5113874;28;20093;-73
2023/05/04 05:42:29;;;;;;;21.25;10.23;;;;;;;-140.66;100.00;55571.53;5114717;28;20028;-73
2023/05/04 05:45:15;;;;;;;14.85;9.55;;;;;;;-140.66;100.00;55571.53;5114756;28;20119;-74
2023/05/04 05:48:01;;;;;;;17.25;8.98;;;;;;;-140.66;100.00;55571.53;5114517;28;20356;-73
2023/05/04 05:50:47;;;;;;;16.25;9.38;;;;;;;-140.66;100.00;55571.53;5113900;28;20031;-74
2023/05/04 05:53:32;;;;;;;15.88;8.77;;;;;;;-140.66;100.00;55571.53;5114264;28;20028;-75
2023/05/04 05:56:18;;;;;;;14.75;8.68;;;;;;;-140.66;100.00;55571.53;5114852;28;20035;-74
2023/05/04 05:59:04;;;;;;;16.15;8.00;;;;;;;-140.66;100.00;55571.53;5114394;28;20477;-73
2023/05/04 06:01:50;;;;;;;17.20;8.60;;;;;;;-140.66;100.00;55571.53;5113950;28;20027;-73
2023/05/04 06:04:35;;;;;;;12.00;7.93;;;;;;;-140.66;100.00;55571.53;5113832;28;20414;-73
2023/05/04 06:07:22;;;;;;;13.45;7.47;;;;;;;-140.66;100.00;55571.53;5114084;28;20028;-74
2023/05/04 06:10:09;;;;;;;14.15;8.43;;;;;;;-140.66;100.00;55571.53;5114307;28;20140;-72
2023/05/04 06:12:55;;;;;;;15.45;8.48;;;;;;;-140.66;100.00;55571.53;5114450;28;20031;-74
2023/05/04 06:15:40;;;;;;;14.73;8.00;;;;;;;-140.66;100.00;55571.53;5113797;28;20038;-73
2023/05/04 06:18:26;;;;;;;13.52;7.63;;;;;;;-140.66;100.00;55571.53;5113372;28;20019;-73
2023/05/04 06:21:12;;;;;;;17.85;8.65;;;;;;;-140.66;100.00;55571.53;5113458;28;20031;-72
2023/05/04 06:23:58;;;;;;;16.58;8.07;;;;;;;-140.66;100.00;55571.53;5099732;28;20451;-72
2023/05/04 06:26:44;;;;;;;16.73;8.40;;;;;;;-140.66;100.00;55571.53;5100185;28;20440;-73
2023/05/04 06:29:29;;;;;;;13.80;7.40;;;;;;;-140.66;100.00;55571.53;5113612;28;20019;-72
2023/05/04 06:32:15;;;;;;;15.88;7.38;;;;;;;-140.66;100.00;55571.53;5117101;28;20036;-72
2023/05/04 06:35:01;;;;;;;13.63;7.70;;;;;;;-140.66;100.00;55571.53;5117551;28;20038;-71
2023/05/04 06:37:47;;;;;;;20.23;7.10;;;;;;;-140.66;100.00;55571.53;5117259;28;20455;-70
2023/05/04 06:40:32;;;;;;;15.57;7.05;;;;;;;-140.66;100.00;55571.53;5102811;28;20039;-71
2023/05/04 06:43:18;;;;;;;15.43;7.43;;;;;;;-140.66;100.00;55571.53;5117277;28;20115;-72
2023/05/04 06:46:04;;;;;;;13.02;7.22;;;;;;;-140.66;100.00;55571.53;5117451;28;20452;-71
2023/05/04 06:48:50;;;;;;;13.13;7.03;;;;;;;-140.66;100.00;55571.53;5117332;28;20038;-72
2023/05/04 06:51:37;;;;;;;15.00;7.28;;;;;;;-140.66;100.00;55571.53;5116701;28;20092;-72
2023/05/04 06:54:23;;;;;;;13.60;8.30;;;;;;;-140.66;100.00;55571.53;5117352;28;20313;-71
2023/05/04 06:57:09;;;;;;;11.27;7.82;;;;;;;-140.66;100.00;55571.53;5116570;28;20165;-71
2023/05/04 06:59:55;;;;;;;13.65;7.18;;;;;;;-140.66;100.00;55571.53;5116889;28;20039;-71
2023/05/04 07:02:41;;;;;;;20.58;8.27;;;;;;;-140.66;100.00;55571.53;5117157;28;20108;-70
2023/05/04 07:05:27;;;;;;;17.20;8.23;;;;;;;-140.66;100.00;55571.53;5117142;28;20035;-71
2023/05/04 07:08:13;;;;;;;24.10;10.75;;;;;;;-140.66;100.00;55571.53;5116875;28;20028;-70
2023/05/04 07:10:59;;;;;;;16.88;9.38;;;;;;;-140.66;100.00;55571.53;5101933;28;20052;-71
2023/05/04 07:13:44;;;;;;;16.85;9.10;;;;;;;-140.66;100.00;55571.53;5116230;28;20091;-71
2023/05/04 07:16:31;;;;;;;16.05;9.07;;;;;;;-140.66;100.00;55571.53;5102824;28;20043;-70
2023/05/04 07:19:17;;;;;;;17.98;9.40;;;;;;;-140.66;100.00;55571.53;5116573;28;20031;-71
2023/05/04 07:22:03;;;;;;;21.35;10.02;;;;;;;-140.66;100.00;55571.53;5116525;28;20359;-71
2023/05/04 07:24:48;;;;;;;21.40;9.98;;;;;;;-140.66;100.00;55571.53;5117137;28;20418;-71
2023/05/04 07:27:34;;;;;;;22.13;10.52;;;;;;;-140.66;100.00;55571.53;5116173;28;20050;-72
2023/05/04 07:30:20;;;;;;;20.20;9.73;;;;;;;-140.66;100.00;55571.53;5101787;28;20317;-71
2023/05/04 07:33:06;;;;;;;19.77;9.55;;;;;;;-140.66;100.00;55571.53;5116533;28;20115;-71
2023/05/04 07:35:58;;;;;;;20.65;9.55;;;;;;;-140.66;100.00;55571.53;5102245;28;20035;-70
2023/05/04 07:38:44;;;;;;;23.25;10.90;;;;;;;-140.66;100.00;55571.53;5115872;28;20474;-70
2023/05/04 07:41:30;;;;;;;28.65;11.52;;;;;;;-140.66;100.00;55571.53;5115414;28;20035;-70
2023/05/04 07:44:15;;;;;;;22.95;10.80;;;;;;;-140.66;100.00;55571.53;5102189;28;20046;-71
2023/05/04 07:47:01;;;;;;;26.40;10.82;;;;;;;-140.66;100.00;55571.53;5116451;28;20028;-71
2023/05/04 07:49:47;;;;;;;25.55;11.00;;;;;;;-140.66;100.00;55571.53;5115813;28;20038;-71
2023/05/04 07:52:33;;;;;;;19.83;9.98;;;;;;;-140.66;100.00;55571.53;5087270;28;20028;-71
2023/05/04 07:55:19;;;;;;;16.85;10.15;;;;;;;-140.66;100.00;55571.53;5102088;28;20058;-71
2023/05/04 07:58:05;;;;;;;18.42;9.25;;;;;;;-140.66;100.00;55571.53;5117546;28;20038;-71
2023/05/04 08:00:51;;;;;;;16.25;8.98;;;;;;;-140.66;100.00;55571.53;5116479;28;20027;-71
2023/05/04 08:03:37;;;;;;;15.98;9.73;;;;;;;-140.66;100.00;55571.53;5116360;28;20084;-71
2023/05/04 08:06:22;;;;;;;15.57;9.60;;;;;;;-140.66;100.00;55571.53;5115436;28;20024;-71
2023/05/04 08:09:08;;;;;;;11.45;8.50;;;;;;;-140.66;100.00;55571.53;5115280;28;20383;-71
2023/05/04 08:11:54;;;;;;;16.67;8.70;;;;;;;-140.66;100.00;55571.53;5115389;28;20071;-71
2023/05/04 08:14:40;;;;;;;13.38;8.88;;;;;;;-140.66;100.00;55571.53;5115306;28;20023;-71
2023/05/04 08:17:26;;;;;;;16.58;8.43;;;;;;;-140.66;100.00;55571.53;5101389;28;20027;-71
2023/05/04 08:20:12;;;;;;;12.60;8.70;;;;;;;-140.66;100.00;55571.53;5101531;28;20111;-71
2023/05/04 08:22:59;;;;;;;16.50;9.13;;;;;;;-140.66;100.00;55571.53;5115836;28;20028;-71
2023/05/04 08:25:45;;;;;;;15.45;8.75;;;;;;;-140.66;100.00;55571.53;5115075;28;20120;-71
2023/05/04 08:28:38;;;;;;;14.68;8.43;;;;;;;-140.66;100.00;55571.53;5114761;28;20456;-70
2023/05/04 08:31:24;;;;;;;18.55;9.02;;;;;;;-140.66;100.00;55571.53;5101361;28;20023;-71
2023/05/04 08:34:09;;;;;;;13.20;8.10;;;;;;;-140.66;100.00;55571.53;5101540;28;20409;-71
2023/05/04 08:36:55;;;;;;;17.60;8.43;;;;;;;-140.66;100.00;55571.53;5115220;28;20023;-71
2023/05/04 08:39:41;;;;;;;14.82;7.95;;;;;;;-140.66;100.00;55571.53;5115301;28;20388;-71
2023/05/04 08:42:28;;;;;;;12.85;8.70;;;;;;;-140.66;100.00;55571.53;5100384;28;20020;-71
2023/05/04 08:45:15;;;;;;;16.30;8.85;;;;;;;-140.66;100.00;55571.53;5114962;28;20393;-72
2023/05/04 08:48:02;;;;;;;18.63;8.55;;;;;;;-140.66;100.00;55571.53;5114604;28;20035;-71
2023/05/04 08:50:48;;;;;;;14.23;8.70;;;;;;;-140.66;100.00;55571.53;5100937;28;20051;-70
2023/05/04 08:53:36;;;;;;;14.43;9.15;;;;;;;-140.66;100.00;55571.53;5099909;28;20024;-70
2023/05/04 08:56:23;;;;;;;12.98;8.02;;;;;;;-140.66;100.00;55571.53;5101091;28;20107;-71
2023/05/04 08:59:21;;;;;;;13.38;8.25;;;;;;;-140.66;100.00;55571.53;5114872;28;20019;-69
2023/05/04 09:02:12;;;;;;;25.10;9.05;;;;;;;-140.66;100.00;55571.53;5114722;28;20023;-71
2023/05/04 09:05:00;;;;;;;20.88;9.65;;;;;;;-140.66;100.00;55571.53;5114841;28;20028;-71
2023/05/04 09:07:49;;;;;;;16.55;8.98;;;;;;;-140.66;100.00;55571.53;5114424;28;20035;-71
2023/05/04 09:10:35;;;;;;;15.90;9.38;;;;;;;-140.66;100.00;55571.53;5114272;28;20102;-71
2023/05/04 09:13:21;;;;;;;21.25;9.60;;;;;;;-140.66;100.00;55571.53;5114326;28;20041;-71
2023/05/04 09:16:08;;;;;;;17.98;8.95;;;;;;;-140.66;100.00;55571.53;5114441;28;20051;-70
2023/05/04 09:18:53;;;;;;;15.60;8.50;;;;;;;-140.66;100.00;55571.53;5114173;28;20038;-72
2023/05/04 09:21:39;;;;;;;13.52;8.02;;;;;;;-140.66;100.00;55571.53;5114311;28;20111;-71
2023/05/04 09:24:28;;;;;;;11.95;7.28;;;;;;;-140.66;100.00;55571.53;5115207;28;20473;-72
2023/05/04 09:27:16;;;;;;;14.10;7.25;;;;;;;-140.66;100.00;55571.53;5114732;28;20413;-71
2023/05/04 09:30:04;;;;;;;14.45;7.13;;;;;;;-140.66;100.00;55571.53;5114012;28;20039;-71
2023/05/04 09:32:50;;;;;;;14.45;7.72;;;;;;;-140.66;100.00;55571.53;5100218;28;20096;-71
2023/05/04 09:35:39;;;;;;;15.25;8.15;;;;;;;-140.66;100.00;55571.53;5100454;28;20023;-71
2023/05/04 09:38:26;;;;;;;15.82;6.72;;;;;;;-140.66;100.00;55571.53;5099551;28;20027;-71
2023/05/04 09:41:12;;;;;;;15.60;7.07;;;;;;;-140.66;100.00;55571.53;5113516;28;20068;-70
2023/05/04 09:43:57;;;;;;;16.98;7.13;;;;;;;-140.66;100.00;55571.53;5114728;28;20523;-70
2023/05/04 09:46:54;;;;;;;11.90;7.10;;;;;;;-140.66;100.00;55571.53;5114087;28;20023;-71
2023/05/04 09:49:40;;;;;;;15.32;8.07;;;;;;;-140.66;100.00;55571.53;5100392;28;20024;-70
2023/05/04 09:52:30;;;;;;;15.88;8.32;;;;;;;-140.66;100.00;55571.53;5100175;28;20102;-72
2023/05/04 09:55:18;;;;;;;13.27;7.10;;;;;;;-140.66;100.00;55571.53;5114460;28;20043;-71
2023/05/04 09:58:04;;;;;;;12.75;7.30;;;;;;;-140.66;100.00;55571.53;5114898;28;20051;-72
2023/05/04 10:00:52;;;;;;;12.85;7.45;;;;;;;-140.66;100.00;55571.53;5113664;28;20094;-71
2023/05/04 10:03:38;;;;;;;21.33;8.55;;;;;;;-140.66;100.00;55571.53;5099856;28;20143;-71
2023/05/04 10:06:27;;;;;;;11.10;8.00;;;;;;;-140.66;100.00;55571.53;5117934;28;20123;-72
2023/05/04 10:09:14;;;;;;;14.43;7.90;;;;;;;-140.66;100.00;55571.53;5117630;28;20028;-71
2023/05/04 10:12:04;;;;;;;11.95;7.93;;;;;;;-140.66;100.00;55571.53;5117705;28;20086;-71
2023/05/04 10:14:49;;;;;;;26.08;11.18;;;;;;;-140.66;100.00;55571.53;5117393;28;20076;-71
2023/05/04 10:17:41;;;;;;;47.72;16.92;;;;;;;-140.66;100.00;55571.53;5117631;28;20034;-72
2023/05/04 10:21:14;;;;;;;16.77;8.10;;;;;;;-140.66;100.00;55571.53;5117552;28;20031;-70
2023/05/04 10:24:08;;;;;;;11.77;7.28;;;;;;;-140.66;100.00;55571.53;5117428;28;20364;-71
2023/05/04 10:27:10;;;;;;;16.90;8.60;;;;;;;-140.66;100.00;55571.53;5117823;28;20027;-72
2023/05/04 10:29:57;;;;;;;11.13;7.68;;;;;;;-140.66;100.00;55571.53;5117898;28;20174;-71
2023/05/04 10:32:44;;;;;;;10.60;6.75;;;;;;;-140.66;100.00;55571.53;5103433;28;20027;-72
2023/05/04 10:35:31;;;;;;;12.65;7.28;;;;;;;-140.66;100.00;55571.53;5117027;28;20442;-71
2023/05/04 10:38:16;;;;;;;12.32;7.57;;;;;;;-140.66;100.00;55571.53;5117736;28;20066;-72
2023/05/04 10:41:16;;;;;;;8.32;6.30;;;;;;;-140.66;100.00;55571.53;5116885;28;20110;-71
2023/05/04 10:44:03;;;;;;;9.23;5.85;;;;;;;-140.66;100.00;55571.53;5103154;28;20038;-71
2023/05/04 10:47:06;;;;;;;10.38;6.28;;;;;;;-140.66;100.00;55571.53;5117080;28;20391;-71
2023/05/04 10:50:10;;;;;;;12.45;6.63;;;;;;;-140.66;100.00;55571.53;5117504;28;20043;-71
2023/05/04 10:52:55;;;;;;;8.95;6.43;;;;;;;-140.66;100.00;55571.53;5117247;28;20059;-71
2023/05/04 10:55:44;;;;;;;11.50;6.55;;;;;;;-140.66;100.00;55571.53;5117125;28;20030;-71
2023/05/04 10:58:30;;;;;;;11.88;6.78;;;;;;;-140.66;100.00;55571.53;5101803;28;20030;-71
2023/05/04 11:01:16;;;;;;;11.43;7.07;;;;;;;-140.66;100.00;55571.53;5117830;28;20038;-72
2023/05/04 11:04:02;;;;;;;18.27;8.45;;;;;;;-140.66;100.00;55571.53;5128728;28;20060;-71
2023/05/04 11:07:03;;;;;;;15.88;10.25;;;;;;;-140.66;100.00;55571.53;5129934;28;20087;-72
2023/05/04 11:09:49;;;;;;;13.40;7.45;;;;;;;-140.66;100.00;55571.53;5116626;28;20079;-72
2023/05/04 11:12:36;;;;;;;11.43;7.53;;;;;;;-140.66;100.00;55571.53;5103137;28;20019;-71
2023/05/04 11:15:22;;;;;;;17.65;7.65;;;;;;;-140.66;100.00;55571.53;5116723;28;20114;-71
2023/05/04 11:18:08;;;;;;;11.75;6.70;;;;;;;-140.66;100.00;55571.53;5115831;28;20082;-71
2023/05/04 11:20:55;;;;;;;8.88;6.55;;;;;;;-140.66;100.00;55571.53;5116533;28;20403;-71
2023/05/04 11:23:41;;;;;;;12.38;6.85;;;;;;;-140.66;100.00;55571.53;5119485;28;20083;-73
2023/05/04 11:26:29;;;;;;;11.73;6.85;;;;;;;-140.66;100.00;55571.53;5121003;28;20050;-72
2023/05/04 11:29:15;;;;;;;16.83;6.93;;;;;;;-140.66;100.00;55571.53;5117121;28;20023;-72
2023/05/04 11:32:01;;;;;;;22.30;7.53;;;;;;;-140.66;100.00;55571.53;5116932;28;20034;-71
2023/05/04 11:34:46;;;;;;;14.55;7.13;;;;;;;-140.66;100.00;55571.53;5102637;28;20023;-71
2023/05/04 11:37:43;;;;;;;10.90;6.97;;;;;;;-140.66;100.00;55571.53;5116176;28;20039;-71
2023/05/04 11:40:29;;;;;;;18.88;8.35;;;;;;;-140.66;100.00;55571.53;5115871;28;20024;-73
2023/05/04 11:43:16;;;;;;;14.25;7.50;;;;;;;-140.66;100.00;55571.53;5115980;28;20030;-71
2023/05/04 11:46:03;;;;;;;12.32;7.13;;;;;;;-140.66;100.00;55571.53;5101895;28;20045;-72
2023/05/04 11:48:49;;;;;;;14.15;7.25;;;;;;;-140.66;100.00;55571.53;5116286;28;20038;-71
2023/05/04 11:51:35;;;;;;;14.88;7.20;;;;;;;-140.66;100.00;55571.53;5115951;28;20030;-72
2023/05/04 11:54:21;;;;;;;16.65;6.95;;;;;;;-140.66;100.00;55571.53;5116366;28;20023;-73
2023/05/04 11:57:06;;;;;;;11.85;6.85;;;;;;;-140.66;100.00;55571.53;5115544;28;20023;-71
2023/05/04 11:59:52;;;;;;;15.20;9.75;;;;;;;-140.66;100.00;55571.53;5114010;27;20111;-73
2023/05/04 12:02:38;;;;;;;12.93;9.30;;;;;;;-140.66;100.00;55571.53;5095421;28;20405;-71
2023/05/04 12:05:30;;;;;;;9.35;7.05;;;;;;;-140.66;100.00;55571.53;5095942;28;20032;-71
2023/05/04 12:08:26;;;;;;;12.98;7.15;;;;;;;-140.66;100.00;55571.53;5096505;28;20028;-72
2023/05/04 12:11:19;;;;;;;9.00;6.15;;;;;;;-140.66;100.00;55571.53;5095013;28;20052;-70
2023/05/04 12:14:15;;;;;;;10.20;5.85;;;;;;;-140.66;100.00;55571.53;5096025;28;20028;-72
2023/05/04 12:17:02;;;;;;;9.52;5.50;;;;;;;-140.66;100.00;55571.53;5095674;28;20027;-72
2023/05/04 12:19:55;;;;;;;8.18;5.10;;;;;;;-140.66;100.00;55571.53;5095721;28;20028;-72
2023/05/04 12:22:41;;;;;;;9.18;6.93;;;;;;;-140.66;100.00;55571.53;5095822;28;20539;-72
2023/05/04 12:25:27;;;;;;;9.38;6.05;;;;;;;-140.66;100.00;55571.53;5094436;28;20390;-72
2023/05/04 12:28:13;;;;;;;11.63;5.68;;;;;;;-140.66;100.00;55571.53;5094087;28;20355;-72
2023/05/04 12:30:58;;;;;;;10.27;5.70;;;;;;;-140.66;100.00;55571.53;5094279;28;20402;-71
2023/05/04 12:33:44;;;;;;;8.82;5.35;;;;;;;-140.66;100.00;55571.53;5095551;28;20036;-71